Tatums, Oklahoma
Current Conditions -  °F | °C
As of 7:35 PM on Tuesday 25 Nov 2014 (Local Time) from KPVJ Reporting Station
Clear Clear  
Wind Chill: 44°   Ceiling: Unl
Heat Index: 44°   Visibility: 10mi
Dew Point: 27°   Wind: 3mph
Humidity: 50%   Direction: 190°S
Pressure: 30.1"   Gusts: NA
Location:  34.48°N, 97.46°W
Report Text: KPVJ 260135Z AUTO 19003KT 10SM CLR 07/M03 A3010 RMK AO2 T00671030
Loading
Personal Weather Stations






























Interactive Weather Map New forecast layout! Learn more

10-Day Weather Forecast

Advertisements
Track Severe Weather on mobile